Terminal Aerodrome Forecast
Issued by NWS

Current Version | Previous Version | Text Only | Print | Product List | Glossary On
Versions: 1 2 3 4 5 6 7 8 9 10 11 12 13 14 15 16 17 18 19 20 21 22 23 24 25 26
000
FTUS43 KAPX 182322
TAFMBL
TAF
KMBL 182322Z 1900/1924 20011G16KT P6SM OVC007
     FM190100 22008KT 3SM BR BKN003
     FM191000 22005KT 1/2SM FG BKN003
     FM191300 21005KT 1SM BR SCT003=

USA.gov is the U.S. government's official web portal to all federal, state and local government web resources and services.